Time;durP1;ratioP1;P1;durP2;ratioP2;P2;SDS_P1;SDS_P2;PMS_P1;PMS_P2;Temp;Humidity;BMP_temperature;BMP_pressure;BME280_temperature;BME280_humidity;BME280_pressure;Samples;Min_cycle;Max_cycle;Signal;HPM_P1;HPM_P2
2023/09/01 00:02:23;;;;;;;10.38;4.07;;;;;;;16.30;84.56;101094.09;5096801;28;20028;-61
2023/09/01 00:04:49;;;;;;;10.23;4.28;;;;;;;16.34;84.40;101090.50;5096771;28;20035;-62
2023/09/01 00:07:14;;;;;;;12.07;4.43;;;;;;;16.30;84.44;101080.75;5096752;28;20040;-62
2023/09/01 00:09:40;;;;;;;7.88;4.53;;;;;;;16.29;84.37;101084.31;5096863;28;20439;-62
2023/09/01 00:12:05;;;;;;;11.95;4.03;;;;;;;16.30;84.23;101064.75;5096752;28;20169;-62
2023/09/01 00:14:31;;;;;;;12.52;4.35;;;;;;;16.22;84.67;101067.47;5096894;28;20039;-63
2023/09/01 00:16:56;;;;;;;10.23;4.20;;;;;;;16.12;84.75;101068.47;5078421;28;20039;-62
2023/09/01 00:19:23;;;;;;;10.07;4.25;;;;;;;16.06;85.07;101059.63;5096400;28;20103;-63
2023/09/01 00:21:49;;;;;;;9.80;4.15;;;;;;;15.95;85.29;101063.28;5078408;28;20024;-61
2023/09/01 00:24:15;;;;;;;9.68;4.10;;;;;;;15.93;85.69;101069.50;5096493;28;20079;-62
2023/09/01 00:26:40;;;;;;;11.85;4.40;;;;;;;15.89;85.90;101082.00;5096570;28;20510;-63
2023/09/01 00:29:05;;;;;;;9.32;4.45;;;;;;;15.93;86.03;101074.84;5096269;28;20031;-62
2023/09/01 00:31:33;;;;;;;12.77;4.90;;;;;;;15.93;85.85;101062.41;5096267;28;20039;-62
2023/09/01 00:33:58;;;;;;;9.60;3.95;;;;;;;15.95;85.53;101067.72;5096036;28;20072;-63
2023/09/01 00:36:23;;;;;;;11.65;4.30;;;;;;;15.88;85.55;101063.34;5094971;28;20115;-62
2023/09/01 00:38:49;;;;;;;9.75;4.13;;;;;;;15.92;85.76;101057.97;5078142;28;20032;-63
2023/09/01 00:41:14;;;;;;;10.30;4.47;;;;;;;15.91;85.99;101058.88;5096431;28;20016;-61
2023/09/01 00:43:39;;;;;;;10.02;4.47;;;;;;;15.91;85.82;101055.31;5096105;28;20085;-61
2023/09/01 00:46:05;;;;;;;10.45;4.47;;;;;;;15.91;85.86;101056.19;5096029;28;20036;-61
2023/09/01 00:48:30;;;;;;;7.72;4.22;;;;;;;15.87;86.20;101046.47;5095906;28;20082;-62
2023/09/01 00:50:56;;;;;;;9.15;4.13;;;;;;;15.87;86.11;101041.13;5095649;28;20028;-61
2023/09/01 00:53:21;;;;;;;12.13;4.18;;;;;;;15.92;85.97;101041.09;5095835;28;20481;-61
2023/09/01 00:55:49;;;;;;;7.75;4.20;;;;;;;15.93;86.00;101042.84;5095703;28;20074;-62
2023/09/01 00:58:14;;;;;;;10.35;4.28;;;;;;;15.88;86.39;101042.91;5096163;28;20045;-62
2023/09/01 01:00:40;;;;;;;11.30;4.43;;;;;;;15.88;86.55;101050.88;5095706;28;20486;-61
2023/09/01 01:03:08;;;;;;;9.07;4.65;;;;;;;15.80;86.58;101046.50;5095935;28;20107;-61
2023/09/01 01:05:54;;;;;;;10.50;4.70;;;;;;;15.78;86.74;101042.09;5095401;28;20016;-61
2023/09/01 01:08:19;;;;;;;8.95;4.53;;;;;;;15.77;86.91;101043.00;5095555;28;20032;-62
2023/09/01 01:10:58;;;;;;;8.48;4.50;;;;;;;15.78;86.66;101051.88;5094776;28;20039;-62
2023/09/01 01:13:28;;;;;;;9.23;4.32;;;;;;;15.75;86.92;101057.22;5095492;28;20035;-62
2023/09/01 01:15:57;;;;;;;11.57;4.68;;;;;;;15.75;87.03;101063.41;5095742;28;20028;-61
2023/09/01 01:18:24;;;;;;;12.30;4.85;;;;;;;15.67;87.37;101062.63;5095230;28;20103;-62
2023/09/01 01:20:55;;;;;;;10.57;4.63;;;;;;;15.67;87.33;101070.59;5095198;28;20519;-62
2023/09/01 01:23:22;;;;;;;8.63;4.53;;;;;;;15.64;87.28;101069.69;5095560;28;20036;-61
2023/09/01 01:25:49;;;;;;;9.35;4.43;;;;;;;15.64;87.30;101059.97;5095576;28;20035;-62
2023/09/01 01:28:16;;;;;;;9.25;4.80;;;;;;;15.69;87.63;101066.13;5095201;28;20024;-62
2023/09/01 01:30:42;;;;;;;12.85;4.43;;;;;;;15.75;87.44;101059.88;5095302;28;20036;-61
2023/09/01 01:33:26;;;;;;;11.35;4.70;;;;;;;15.76;87.24;101059.00;5095020;28;20055;-63
2023/09/01 01:36:05;;;;;;;8.93;4.60;;;;;;;15.81;87.34;101054.50;5095101;28;20031;-62
2023/09/01 01:38:32;;;;;;;9.43;4.45;;;;;;;15.82;87.36;101052.72;5095311;28;20077;-61
2023/09/01 01:41:14;;;;;;;12.50;4.80;;;;;;;15.85;87.24;101056.25;5095148;28;20363;-63
2023/09/01 01:43:42;;;;;;;7.78;4.35;;;;;;;15.83;87.20;101065.16;5095048;28;20123;-62
2023/09/01 01:46:08;;;;;;;11.63;4.20;;;;;;;15.82;87.32;101060.72;5095051;28;20036;-61
2023/09/01 01:48:40;;;;;;;8.68;4.65;;;;;;;15.83;87.33;101060.69;5094790;28;20028;-62
2023/09/01 01:51:05;;;;;;;10.10;4.55;;;;;;;15.83;87.22;101075.81;5094508;28;20035;-61
2023/09/01 01:53:35;;;;;;;13.68;4.75;;;;;;;15.85;87.43;101071.38;5094792;28;20028;-63
2023/09/01 01:56:03;;;;;;;10.25;4.47;;;;;;;15.82;87.03;101068.72;5094648;28;20514;-62
2023/09/01 01:58:29;;;;;;;8.88;4.75;;;;;;;15.78;87.38;101070.50;5094864;28;20035;-63
2023/09/01 02:00:54;;;;;;;12.80;4.60;;;;;;;15.70;88.25;101073.22;5076398;28;20032;-62
2023/09/01 02:03:20;;;;;;;13.57;4.90;;;;;;;15.72;88.31;101063.47;5094556;28;20136;-62
2023/09/01 02:05:45;;;;;;;11.30;4.68;;;;;;;15.78;88.16;101055.41;5076247;28;20382;-63
2023/09/01 02:08:11;;;;;;;13.13;4.90;;;;;;;15.79;87.82;101053.63;5094461;28;20055;-61
2023/09/01 02:10:36;;;;;;;11.30;4.60;;;;;;;15.75;88.10;101055.41;5094390;28;20028;-62
2023/09/01 02:13:03;;;;;;;11.77;4.60;;;;;;;15.78;88.15;101050.09;5094567;28;20481;-63
2023/09/01 02:15:30;;;;;;;9.30;4.78;;;;;;;15.72;88.22;101058.13;5094600;28;20037;-63
2023/09/01 02:17:55;;;;;;;9.43;5.00;;;;;;;15.73;88.41;101043.03;5076348;28;20051;-61
2023/09/01 02:20:20;;;;;;;15.40;5.25;;;;;;;15.73;88.40;101049.25;5093940;28;20068;-62
2023/09/01 02:22:50;;;;;;;12.77;5.20;;;;;;;15.76;88.35;101043.00;5094187;28;20024;-62
2023/09/01 02:25:16;;;;;;;13.95;5.70;;;;;;;15.75;88.32;101047.44;5094030;28;20496;-62
2023/09/01 02:27:42;;;;;;;11.48;4.93;;;;;;;15.78;88.35;101047.41;5094005;28;20031;-62
2023/09/01 02:30:10;;;;;;;10.98;5.18;;;;;;;15.76;88.52;101051.88;5094209;28;20393;-62
2023/09/01 02:32:37;;;;;;;14.07;5.05;;;;;;;15.80;88.35;101051.84;5093934;28;20027;-62
2023/09/01 02:35:06;;;;;;;11.52;5.15;;;;;;;15.76;88.71;101051.88;5075633;28;20097;-61
2023/09/01 02:37:32;;;;;;;9.68;5.10;;;;;;;15.73;89.08;101045.69;5093951;28;20531;-62
2023/09/01 02:39:57;;;;;;;9.50;4.95;;;;;;;15.74;88.90;101040.34;5093817;28;20020;-61
2023/09/01 02:42:23;;;;;;;12.00;5.15;;;;;;;15.75;88.81;101036.78;5093779;28;20066;-62
2023/09/01 02:44:49;;;;;;;11.90;5.32;;;;;;;15.73;89.06;101054.56;5075653;28;20044;-62
2023/09/01 02:47:14;;;;;;;11.38;5.30;;;;;;;15.77;88.96;101047.44;5093736;28;20089;-62
2023/09/01 02:49:40;;;;;;;12.80;5.55;;;;;;;15.75;89.18;101038.56;5093942;28;20401;-62
2023/09/01 02:52:05;;;;;;;9.13;4.88;;;;;;;15.74;88.99;101027.03;5093235;28;20056;-62
2023/09/01 02:54:31;;;;;;;13.45;5.30;;;;;;;15.70;89.34;101035.03;5093921;28;20039;-62
2023/09/01 02:56:56;;;;;;;14.27;5.53;;;;;;;15.70;89.41;101035.03;5093586;28;20024;-62
2023/09/01 02:59:21;;;;;;;9.95;5.05;;;;;;;15.68;89.56;101047.50;5093558;28;20020;-62
2023/09/01 03:01:47;;;;;;;9.77;5.32;;;;;;;15.71;89.52;101044.81;5093335;28;20035;-61
2023/09/01 03:04:12;;;;;;;11.80;5.30;;;;;;;15.71;89.45;101043.03;5093408;28;20107;-62
2023/09/01 03:06:37;;;;;;;11.35;5.53;;;;;;;15.68;89.52;101043.06;5093348;28;20036;-62
2023/09/01 03:09:04;;;;;;;9.73;5.50;;;;;;;15.70;89.70;101035.03;5093330;28;20477;-62
2023/09/01 03:11:29;;;;;;;11.70;6.05;;;;;;;15.72;89.71;101038.59;5075265;28;20036;-62
2023/09/01 03:13:55;;;;;;;11.02;5.50;;;;;;;15.73;89.67;101035.91;5075311;28;20028;-64
2023/09/01 03:16:21;;;;;;;9.52;5.32;;;;;;;15.70;89.85;101033.25;5075322;28;20028;-62
2023/09/01 03:18:47;;;;;;;11.15;6.00;;;;;;;15.66;89.94;101022.66;5093248;28;20031;-61
2023/09/01 03:21:13;;;;;;;15.27;5.80;;;;;;;15.69;90.26;101031.50;5092858;28;20107;-62
2023/09/01 03:23:39;;;;;;;10.80;4.97;;;;;;;15.78;89.47;101035.88;5093220;28;20020;-61
2023/09/01 03:26:05;;;;;;;11.70;5.30;;;;;;;15.83;89.48;101034.06;5093144;28;20565;-62
2023/09/01 03:28:32;;;;;;;10.82;5.40;;;;;;;15.77;89.93;101029.66;5093189;28;20103;-62
2023/09/01 03:30:57;;;;;;;11.23;5.20;;;;;;;15.74;90.04;101032.34;5093414;28;20393;-62
2023/09/01 03:33:23;;;;;;;11.32;5.47;;;;;;;15.74;89.95;101036.78;5092299;28;20048;-62
2023/09/01 03:35:49;;;;;;;9.63;4.90;;;;;;;15.75;90.05;101027.91;5093024;28;20066;-62
2023/09/01 03:38:14;;;;;;;10.00;5.35;;;;;;;15.75;90.50;101027.91;5092986;28;20442;-63
2023/09/01 03:40:39;;;;;;;11.90;5.32;;;;;;;15.73;90.74;101022.59;5093141;28;20028;-61
2023/09/01 03:43:07;;;;;;;9.98;4.93;;;;;;;15.74;90.19;101020.81;5093045;28;20492;-63
2023/09/01 03:45:32;;;;;;;10.63;5.35;;;;;;;15.69;91.02;101012.84;5093158;28;20048;-63
2023/09/01 03:47:57;;;;;;;13.93;5.55;;;;;;;15.68;91.30;101012.88;5092963;28;20107;-62
2023/09/01 03:50:23;;;;;;;10.48;5.50;;;;;;;15.65;91.17;101021.75;5092844;28;20039;-63
2023/09/01 03:52:48;;;;;;;12.45;5.28;;;;;;;15.68;91.38;101020.88;5092632;28;20418;-63
2023/09/01 03:55:14;;;;;;;12.55;5.55;;;;;;;15.62;91.48;101018.19;5093109;28;20020;-63
2023/09/01 03:57:39;;;;;;;11.45;5.47;;;;;;;15.65;91.65;101010.22;5092797;28;20025;-62
2023/09/01 04:00:09;;;;;;;8.82;5.30;;;;;;;15.70;91.71;101019.06;5092693;28;20116;-62
2023/09/01 04:02:35;;;;;;;10.35;5.25;;;;;;;15.74;91.46;101012.81;5092844;28;20055;-61
2023/09/01 04:05:00;;;;;;;10.98;5.35;;;;;;;15.71;91.56;101010.16;5092738;28;20055;-61
2023/09/01 04:07:26;;;;;;;10.82;5.25;;;;;;;15.72;91.61;101004.84;5092769;28;20115;-60
2023/09/01 04:09:51;;;;;;;10.57;5.10;;;;;;;15.71;91.73;101010.16;5074624;28;20067;-61
2023/09/01 04:12:16;;;;;;;11.40;5.15;;;;;;;15.72;91.70;101014.63;5092734;28;20032;-62
2023/09/01 04:14:42;;;;;;;11.50;5.35;;;;;;;15.73;91.66;101009.28;5092963;28;20473;-60
2023/09/01 04:17:08;;;;;;;9.52;5.28;;;;;;;15.77;91.55;101013.69;5092894;28;20039;-62
2023/09/01 04:19:33;;;;;;;11.10;5.45;;;;;;;15.69;91.71;101009.31;5074405;28;20063;-61
2023/09/01 04:21:59;;;;;;;12.60;5.35;;;;;;;15.67;92.21;101011.09;5092268;28;20103;-62
2023/09/01 04:24:24;;;;;;;12.35;5.10;;;;;;;15.72;92.32;101009.28;5092840;28;20044;-61
2023/09/01 04:26:49;;;;;;;13.07;5.20;;;;;;;15.70;92.29;101006.63;5092600;28;20020;-60
2023/09/01 04:29:17;;;;;;;9.18;5.38;;;;;;;15.73;92.60;101003.94;5092790;28;20036;-61
2023/09/01 04:31:43;;;;;;;9.82;5.20;;;;;;;15.74;92.57;100999.50;5092509;28;20594;-61
2023/09/01 04:34:09;;;;;;;11.15;5.00;;;;;;;15.75;92.48;101004.81;5092326;28;20044;-62
2023/09/01 04:36:34;;;;;;;9.98;5.15;;;;;;;15.70;92.65;101008.41;5092506;28;20073;-62
2023/09/01 04:39:04;;;;;;;10.05;5.32;;;;;;;15.70;92.95;101000.41;5092369;28;20032;-63
2023/09/01 04:41:30;;;;;;;9.30;5.20;;;;;;;15.67;92.95;101006.66;5092289;28;20044;-61
2023/09/01 04:43:56;;;;;;;12.15;5.45;;;;;;;15.71;93.19;101013.72;5092393;28;20465;-62
2023/09/01 04:46:21;;;;;;;12.88;5.70;;;;;;;15.70;93.17;101011.94;5076011;28;20070;-62
2023/09/01 04:48:46;;;;;;;12.43;5.88;;;;;;;15.72;93.28;101015.50;5077827;28;20047;-61
2023/09/01 04:51:12;;;;;;;11.00;5.15;;;;;;;15.72;93.48;101010.19;5095548;28;20070;-61
2023/09/01 04:53:37;;;;;;;10.63;5.38;;;;;;;15.74;93.43;101007.50;5095623;28;20478;-62
2023/09/01 04:56:02;;;;;;;13.77;5.70;;;;;;;15.71;93.58;101011.03;5095920;28;20107;-62
2023/09/01 04:58:28;;;;;;;11.70;5.57;;;;;;;15.69;93.60;101018.19;5077856;28;20461;-62
2023/09/01 05:00:54;;;;;;;11.75;5.45;;;;;;;15.63;93.94;101017.28;5095194;28;20385;-61
2023/09/01 05:03:20;;;;;;;11.77;5.60;;;;;;;15.62;94.17;101007.53;5095361;28;20032;-63
2023/09/01 05:05:47;;;;;;;11.52;5.32;;;;;;;15.58;94.09;101009.34;5076928;28;20077;-62
2023/09/01 05:08:12;;;;;;;9.07;5.30;;;;;;;15.57;94.80;101002.25;5095331;28;20145;-62
2023/09/01 05:10:38;;;;;;;10.90;5.68;;;;;;;15.55;95.00;101005.84;5095126;28;20124;-62
2023/09/01 05:13:03;;;;;;;11.07;5.80;;;;;;;15.50;95.26;101006.75;5095002;28;20036;-62
2023/09/01 05:15:30;;;;;;;12.52;5.57;;;;;;;15.55;95.07;101013.84;5094972;28;20081;-63
2023/09/01 05:17:56;;;;;;;10.13;5.57;;;;;;;15.58;95.38;101021.78;5095295;28;20078;-61
2023/09/01 05:20:21;;;;;;;9.38;6.03;;;;;;;15.58;95.47;101014.66;5094661;28;20040;-61
2023/09/01 05:22:46;;;;;;;10.65;5.70;;;;;;;15.59;95.42;101013.78;5094641;28;20103;-63
2023/09/01 05:25:12;;;;;;;10.40;5.88;;;;;;;15.63;95.45;101011.97;5094684;28;20028;-63
2023/09/01 05:27:37;;;;;;;11.00;5.68;;;;;;;15.64;95.72;101006.69;5094722;28;20024;-62
2023/09/01 05:30:03;;;;;;;11.75;5.70;;;;;;;15.63;95.62;101007.56;5094904;28;20032;-62
2023/09/01 05:32:29;;;;;;;12.23;5.65;;;;;;;15.64;95.67;101009.34;5094711;28;20032;-62
2023/09/01 05:34:54;;;;;;;9.63;5.50;;;;;;;15.66;95.71;101018.19;5094621;28;20101;-62
2023/09/01 05:37:20;;;;;;;12.73;6.10;;;;;;;15.67;96.32;101020.00;5094659;28;20039;-62
2023/09/01 05:39:45;;;;;;;9.52;5.82;;;;;;;15.65;96.42;101023.53;5094426;28;20027;-61
2023/09/01 05:42:11;;;;;;;12.05;5.68;;;;;;;15.65;96.61;101027.09;5094439;28;20482;-61
2023/09/01 05:44:37;;;;;;;12.43;5.63;;;;;;;15.69;96.61;101026.19;5094328;28;20044;-61
2023/09/01 05:47:06;;;;;;;11.30;5.68;;;;;;;15.65;96.94;101018.22;5076042;28;20020;-61
2023/09/01 05:49:32;;;;;;;9.85;5.97;;;;;;;15.73;96.67;101027.94;5094313;28;20032;-62
2023/09/01 05:51:59;;;;;;;11.68;5.90;;;;;;;15.74;96.87;101028.81;5094079;28;20028;-62
2023/09/01 05:54:24;;;;;;;12.30;5.75;;;;;;;15.74;96.86;101026.13;5094521;28;20024;-61
2023/09/01 05:56:50;;;;;;;11.23;5.70;;;;;;;15.74;97.20;101020.81;5076130;28;20441;-62
2023/09/01 05:59:15;;;;;;;12.95;5.97;;;;;;;15.81;97.17;101016.34;5076241;28;20077;-61
2023/09/01 06:01:41;;;;;;;12.32;5.80;;;;;;;15.81;97.42;101016.34;5094008;28;20396;-62
2023/09/01 06:04:07;;;;;;;10.35;5.60;;;;;;;15.84;97.52;101016.28;5094025;28;20062;-63
2023/09/01 06:06:34;;;;;;;12.68;5.88;;;;;;;15.86;97.86;101019.84;5093816;28;20048;-62
2023/09/01 06:09:00;;;;;;;12.02;5.53;;;;;;;15.83;97.85;101015.41;5075928;28;20062;-60
2023/09/01 06:11:26;;;;;;;10.20;5.55;;;;;;;15.88;98.11;101018.91;5093970;28;20086;-61
2023/09/01 06:13:51;;;;;;;11.82;5.80;;;;;;;15.94;98.62;101020.66;5093772;28;20040;-60
2023/09/01 06:16:17;;;;;;;8.68;5.90;;;;;;;15.91;98.79;101018.91;5094073;28;20040;-62
2023/09/01 06:18:42;;;;;;;8.65;5.43;;;;;;;15.92;98.70;101020.66;5093671;28;20027;-62
2023/09/01 06:21:10;;;;;;;12.15;5.95;;;;;;;15.94;98.83;101020.66;5093624;28;20496;-62
2023/09/01 06:23:40;;;;;;;10.95;5.88;;;;;;;15.97;98.47;101017.94;5093859;28;20051;-62
2023/09/01 06:26:06;;;;;;;9.38;5.85;;;;;;;15.95;98.72;101017.09;5093593;28;20447;-62
2023/09/01 06:28:31;;;;;;;10.25;5.80;;;;;;;15.98;99.14;101027.72;5093441;28;20032;-61
2023/09/01 06:30:57;;;;;;;12.15;6.03;;;;;;;16.01;99.17;101023.22;5093814;28;20097;-61
2023/09/01 06:33:22;;;;;;;9.38;6.18;;;;;;;15.98;99.01;101030.41;5093219;28;20079;-62
2023/09/01 06:35:47;;;;;;;10.07;5.75;;;;;;;15.97;99.34;101026.84;5093438;28;20039;-62
2023/09/01 06:38:13;;;;;;;9.20;5.80;;;;;;;16.01;99.24;101033.91;5093438;28;20028;-63
2023/09/01 06:40:38;;;;;;;12.15;5.97;;;;;;;16.04;99.63;101038.31;5075363;28;20115;-63
2023/09/01 06:43:04;;;;;;;10.02;6.07;;;;;;;16.05;99.53;101036.53;5093498;28;20489;-62
2023/09/01 06:45:29;;;;;;;8.88;6.00;;;;;;;16.06;99.71;101036.56;5093709;28;20050;-64
2023/09/01 06:47:57;;;;;;;10.27;6.65;;;;;;;16.06;99.68;101047.22;5093608;28;20111;-62
2023/09/01 06:50:23;;;;;;;10.48;6.32;;;;;;;16.05;99.80;101040.09;5093141;28;20093;-63
2023/09/01 06:52:49;;;;;;;9.60;6.43;;;;;;;16.09;100.00;101033.84;5092896;28;20032;-62
2023/09/01 06:55:14;;;;;;;13.52;6.93;;;;;;;16.11;100.00;101036.50;5093170;28;20458;-63
2023/09/01 06:57:40;;;;;;;13.25;6.40;;;;;;;16.11;100.00;101040.06;5093147;28;20035;-63
2023/09/01 07:00:06;;;;;;;10.43;5.88;;;;;;;16.15;100.00;101035.59;5093046;28;20020;-64
2023/09/01 07:02:32;;;;;;;9.88;6.85;;;;;;;16.17;100.00;101037.31;5093046;28;20043;-63
2023/09/01 07:04:58;;;;;;;12.90;7.07;;;;;;;16.20;100.00;101028.41;5093090;28;20111;-62
2023/09/01 07:07:24;;;;;;;12.48;7.82;;;;;;;16.21;100.00;101025.72;5092765;28;20394;-63
2023/09/01 07:09:49;;;;;;;10.10;6.97;;;;;;;16.21;100.00;101027.50;5092304;28;20027;-60
2023/09/01 07:12:15;;;;;;;10.25;7.03;;;;;;;16.20;100.00;101023.09;5092709;28;20024;-61
2023/09/01 07:14:40;;;;;;;11.63;7.00;;;;;;;16.21;100.00;101019.50;5093071;28;20016;-62
2023/09/01 07:17:05;;;;;;;13.45;7.18;;;;;;;16.21;100.00;101008.84;5074625;28;20020;-62
2023/09/01 07:19:31;;;;;;;14.40;7.43;;;;;;;16.20;100.00;101015.09;5093175;28;20136;-62
2023/09/01 07:21:56;;;;;;;12.20;7.82;;;;;;;16.24;100.00;101014.16;5092570;28;20032;-62
2023/09/01 07:24:21;;;;;;;11.27;7.05;;;;;;;16.23;100.00;101012.38;5092881;28;20427;-62
2023/09/01 07:26:47;;;;;;;12.27;7.43;;;;;;;16.25;100.00;101013.25;5092701;28;20030;-60
2023/09/01 07:29:12;;;;;;;10.10;7.20;;;;;;;16.27;100.00;101019.44;5092674;28;20020;-62
2023/09/01 07:31:37;;;;;;;11.77;7.72;;;;;;;16.30;100.00;101018.53;5092519;28;20392;-62
2023/09/01 07:34:03;;;;;;;11.20;7.18;;;;;;;16.31;100.00;101018.50;5092492;28;20052;-62
2023/09/01 07:36:28;;;;;;;9.60;7.55;;;;;;;16.33;100.00;101014.06;5092444;28;20446;-62
2023/09/01 07:38:54;;;;;;;12.68;7.72;;;;;;;16.27;100.00;101017.69;5092472;28;20023;-61
2023/09/01 07:41:19;;;;;;;16.73;8.07;;;;;;;16.27;100.00;101015.03;5092404;28;20053;-62
2023/09/01 07:43:44;;;;;;;12.45;7.90;;;;;;;16.27;100.00;101014.09;5092484;28;20081;-62
2023/09/01 07:46:10;;;;;;;11.68;7.90;;;;;;;16.26;100.00;101005.22;5092409;28;20484;-61
2023/09/01 07:48:35;;;;;;;11.63;7.88;;;;;;;16.26;100.00;101013.22;5092580;28;20020;-62
2023/09/01 07:51:01;;;;;;;11.15;7.65;;;;;;;16.24;100.00;101015.03;5092298;28;20544;-61
2023/09/01 07:53:26;;;;;;;10.88;7.78;;;;;;;16.21;100.00;101012.41;5074144;28;20028;-61
2023/09/01 07:55:51;;;;;;;11.35;7.85;;;;;;;16.22;100.00;101018.63;5092396;28;20035;-61
2023/09/01 07:58:17;;;;;;;11.45;7.47;;;;;;;16.17;100.00;101013.31;5092645;28;20530;-62
2023/09/01 08:00:43;;;;;;;10.65;7.50;;;;;;;16.19;100.00;101016.88;5092244;28;20024;-62
2023/09/01 08:03:12;;;;;;;11.88;8.10;;;;;;;16.15;100.00;101017.81;5092174;28;20040;-61
2023/09/01 08:05:38;;;;;;;11.68;8.00;;;;;;;16.20;100.00;101020.41;5092365;28;20435;-61
2023/09/01 08:08:05;;;;;;;13.35;8.02;;;;;;;16.19;100.00;101027.53;5074406;28;20523;-61
2023/09/01 08:10:30;;;;;;;11.35;8.25;;;;;;;16.23;100.00;101023.94;5092321;28;20036;-61
2023/09/01 08:12:55;;;;;;;12.75;8.20;;;;;;;16.28;100.00;101029.22;5092302;28;20028;-62
2023/09/01 08:15:21;;;;;;;13.70;8.40;;;;;;;16.30;100.00;101031.88;5092550;28;20032;-61
2023/09/01 08:17:46;;;;;;;15.48;8.73;;;;;;;16.23;100.00;101023.94;5092358;28;20350;-61
2023/09/01 08:20:11;;;;;;;11.27;8.45;;;;;;;16.33;100.00;101043.41;5093897;28;20040;-62
2023/09/01 08:22:37;;;;;;;11.95;7.82;;;;;;;16.38;100.00;101046.03;5095985;28;20398;-61
2023/09/01 08:25:03;;;;;;;11.70;8.15;;;;;;;16.41;100.00;101048.66;5096162;28;20020;-62
2023/09/01 08:27:28;;;;;;;11.05;8.18;;;;;;;16.43;100.00;101046.84;5096316;28;20116;-61
2023/09/01 08:29:56;;;;;;;15.02;8.25;;;;;;;16.41;100.00;101043.34;5095956;28;20145;-62
2023/09/01 08:32:21;;;;;;;12.90;8.40;;;;;;;16.43;100.00;101042.41;5095995;28;20481;-62
2023/09/01 08:34:47;;;;;;;11.80;8.43;;;;;;;16.45;100.00;101051.28;5095842;28;20061;-62
2023/09/01 08:37:15;;;;;;;13.23;8.70;;;;;;;16.45;100.00;101048.63;5095794;28;20067;-61
2023/09/01 08:39:41;;;;;;;13.45;8.43;;;;;;;16.48;100.00;101051.22;5095880;28;20032;-62
2023/09/01 08:42:08;;;;;;;11.75;7.85;;;;;;;16.50;100.00;101059.25;5095963;28;20020;-62
2023/09/01 08:44:35;;;;;;;12.52;7.80;;;;;;;16.49;100.00;101060.16;5095688;28;20469;-61
2023/09/01 08:47:01;;;;;;;11.60;8.10;;;;;;;16.50;100.00;101059.25;5095698;28;20062;-62
2023/09/01 08:49:27;;;;;;;13.48;8.13;;;;;;;16.53;100.00;101059.22;5095714;28;20416;-61
2023/09/01 08:51:55;;;;;;;14.63;8.05;;;;;;;16.51;100.00;101063.66;5095262;28;20020;-62
2023/09/01 08:54:21;;;;;;;11.38;7.63;;;;;;;16.50;100.00;101068.13;5095558;28;20024;-61
2023/09/01 08:56:48;;;;;;;11.00;8.27;;;;;;;16.54;100.00;101071.66;5095433;28;20106;-62
2023/09/01 08:59:13;;;;;;;10.02;7.72;;;;;;;16.60;100.00;101073.34;5095414;28;20090;-62
2023/09/01 09:01:39;;;;;;;10.88;7.85;;;;;;;16.62;100.00;101076.91;5095368;28;20020;-62
2023/09/01 09:04:06;;;;;;;11.40;7.95;;;;;;;16.56;100.00;101066.28;5095367;28;20358;-61
2023/09/01 09:06:36;;;;;;;10.90;7.78;;;;;;;16.55;100.00;101073.41;5095172;28;20036;-62
2023/09/01 09:09:16;;;;;;;9.65;8.25;;;;;;;16.56;100.00;101071.63;5095319;28;20036;-62
2023/09/01 09:12:00;;;;;;;9.88;8.40;;;;;;;16.54;100.00;101074.31;5095266;28;20117;-62
2023/09/01 09:14:27;;;;;;;11.00;8.20;;;;;;;16.50;100.00;101069.91;5095220;28;20036;-62
2023/09/01 09:16:57;;;;;;;9.70;8.00;;;;;;;16.51;100.00;101074.34;5095388;28;20024;-61
2023/09/01 09:19:23;;;;;;;12.40;8.90;;;;;;;16.49;100.00;101071.69;5095002;28;20487;-61
2023/09/01 09:22:02;;;;;;;9.02;7.43;;;;;;;16.53;100.00;101076.09;5094963;28;20034;-62
2023/09/01 09:24:36;;;;;;;10.77;8.70;;;;;;;16.52;100.00;101076.09;5095039;28;20052;-61
2023/09/01 09:27:03;;;;;;;12.02;8.93;;;;;;;16.48;100.00;101077.03;5094775;28;20036;-62
2023/09/01 09:29:40;;;;;;;11.52;9.27;;;;;;;16.47;100.00;101078.81;5094842;28;20028;-62
2023/09/01 09:32:15;;;;;;;12.68;8.80;;;;;;;16.46;100.00;101070.84;5094528;28;20020;-62
2023/09/01 09:34:41;;;;;;;12.20;9.68;;;;;;;16.42;100.00;101077.97;5094690;28;20048;-61
2023/09/01 09:37:16;;;;;;;14.75;12.10;;;;;;;16.46;100.00;101089.50;5097847;28;20118;-62
2023/09/01 09:39:43;;;;;;;11.13;9.18;;;;;;;16.50;100.00;101088.59;5115230;28;20024;-62
2023/09/01 09:42:08;;;;;;;10.82;8.63;;;;;;;16.52;100.00;101090.31;5115030;28;20028;-62
2023/09/01 09:44:34;;;;;;;11.60;8.60;;;;;;;16.57;100.00;101097.38;5114722;28;20114;-62
2023/09/01 09:47:10;;;;;;;10.93;8.43;;;;;;;16.59;100.00;101092.94;5114804;28;20031;-62
2023/09/01 09:49:37;;;;;;;10.50;8.45;;;;;;;16.60;100.00;101095.59;5114891;28;20020;-61
2023/09/01 09:52:07;;;;;;;9.63;8.05;;;;;;;16.60;100.00;101095.59;5114486;28;20462;-62
2023/09/01 09:54:37;;;;;;;8.82;8.00;;;;;;;16.59;100.00;101085.81;5115127;28;20483;-62
2023/09/01 09:57:12;;;;;;;9.65;8.10;;;;;;;16.61;100.00;101084.00;5114768;28;20043;-62
2023/09/01 09:59:45;;;;;;;8.57;7.68;;;;;;;16.68;100.00;101090.19;5089825;28;20070;-62
2023/09/01 10:02:20;;;;;;;10.52;8.07;;;;;;;16.66;100.00;101090.19;5100004;28;20077;-62
2023/09/01 10:04:47;;;;;;;9.15;7.95;;;;;;;16.71;100.00;101083.03;5103833;28;20042;-61
2023/09/01 10:07:13;;;;;;;9.80;7.63;;;;;;;16.73;100.00;101080.38;5104588;28;20072;-62
2023/09/01 10:09:40;;;;;;;9.23;8.10;;;;;;;16.76;100.00;101085.69;5101965;28;20086;-62
2023/09/01 10:12:06;;;;;;;9.38;8.00;;;;;;;16.80;100.00;101086.53;5103794;28;20035;-62
2023/09/01 10:14:37;;;;;;;8.80;7.40;;;;;;;16.79;100.00;101085.66;5102466;28;20016;-61
2023/09/01 10:17:04;;;;;;;8.20;6.80;;;;;;;16.79;100.00;101080.31;5103503;28;20520;-61
2023/09/01 10:19:30;;;;;;;9.02;7.45;;;;;;;16.80;100.00;101079.41;5086247;28;20412;-62
2023/09/01 10:21:55;;;;;;;10.05;6.97;;;;;;;16.83;100.00;101084.72;5104128;28;20028;-61
2023/09/01 10:24:21;;;;;;;8.10;7.30;;;;;;;16.85;100.00;101090.03;5103078;28;20420;-61
2023/09/01 10:27:05;;;;;;;9.60;7.15;;;;;;;16.88;100.00;101077.53;5084848;28;20058;-61
2023/09/01 10:29:31;;;;;;;7.47;6.68;;;;;;;16.88;100.00;101076.66;5104195;28;20024;-60
2023/09/01 10:32:17;;;;;;;9.50;7.15;;;;;;;16.91;100.00;101079.28;5101497;28;20031;-60
2023/09/01 10:34:56;;;;;;;7.63;6.82;;;;;;;16.90;100.00;101080.19;5102606;28;20048;-61
2023/09/01 10:37:39;;;;;;;7.32;6.45;;;;;;;16.92;100.00;101076.59;5105542;28;20035;-61
2023/09/01 10:40:43;;;;;;;8.48;7.03;;;;;;;16.94;100.00;101088.13;5113746;28;20035;-60
2023/09/01 10:43:11;;;;;;;7.45;6.38;;;;;;;16.96;100.00;101088.13;5113127;28;20032;-61
2023/09/01 10:45:36;;;;;;;7.07;6.38;;;;;;;17.01;100.00;101086.28;5113600;28;20056;-61
2023/09/01 10:48:04;;;;;;;7.38;6.50;;;;;;;17.07;100.00;101090.66;5113854;28;20063;-64
2023/09/01 10:50:33;;;;;;;8.00;6.45;;;;;;;17.12;100.00;101089.69;5113544;28;20517;-62
2023/09/01 10:53:29;;;;;;;6.55;5.95;;;;;;;17.23;100.00;101097.59;5113630;28;20023;-62
2023/09/01 10:56:09;;;;;;;6.50;5.70;;;;;;;17.25;100.00;101096.63;5113532;28;20077;-62
2023/09/01 10:58:54;;;;;;;7.53;6.28;;;;;;;17.32;100.00;101096.59;5095758;28;20028;-63
2023/09/01 11:01:36;;;;;;;5.82;5.15;;;;;;;17.35;100.00;101099.22;5095345;28;20655;-62
2023/09/01 11:04:14;;;;;;;8.45;6.03;;;;;;;17.42;100.00;101104.44;5113610;28;20028;-62
2023/09/01 11:07:00;;;;;;;6.68;5.97;;;;;;;17.53;100.00;101104.31;5113477;28;20031;-63
2023/09/01 11:09:32;;;;;;;5.93;5.32;;;;;;;17.56;100.00;101101.59;5113379;28;20366;-61
2023/09/01 11:11:58;;;;;;;6.70;6.10;;;;;;;17.53;100.00;101094.50;5113459;28;20114;-61
2023/09/01 11:14:23;;;;;;;6.22;5.63;;;;;;;17.58;100.00;101091.75;5113300;28;20102;-60
2023/09/01 11:16:48;;;;;;;6.20;5.53;;;;;;;17.74;100.00;101093.34;5110407;28;20049;-61
2023/09/01 11:19:14;;;;;;;6.25;5.65;;;;;;;17.83;100.00;101094.13;5092906;28;20078;-61